createdAt,value
2017-06-08T00:00:59.024Z,100552.37
2017-06-08T00:03:28.092Z,100553.81
2017-06-08T00:05:57.185Z,100554.84
2017-06-08T00:08:26.995Z,100550.09
2017-06-08T00:10:56.845Z,100549.70
2017-06-08T00:13:25.906Z,100554.30
2017-06-08T00:15:55.744Z,100555.16
2017-06-08T00:18:25.345Z,100553.59
2017-06-08T00:20:55.141Z,100556.64
2017-06-08T00:23:24.992Z,100550.95
2017-06-08T00:25:54.047Z,100545.26
2017-06-08T00:28:23.864Z,100556.81
2017-06-08T00:30:52.952Z,100551.66
2017-06-08T00:33:22.777Z,100550.04
2017-06-08T00:35:51.828Z,100551.34
2017-06-08T00:38:20.900Z,100551.52
2017-06-08T00:40:49.985Z,100558.17
2017-06-08T00:43:19.025Z,100549.98
2017-06-08T00:45:48.120Z,100559.37
2017-06-08T00:48:17.168Z,100557.16
2017-06-08T00:50:46.240Z,100553.70
2017-06-08T00:53:15.323Z,100559.22
2017-06-08T00:55:45.175Z,100561.73
2017-06-08T00:58:14.222Z,100555.02
2017-06-08T01:00:44.052Z,100553.42
2017-06-08T01:03:13.121Z,100548.64
2017-06-08T01:05:42.173Z,100558.37
2017-06-08T01:08:11.284Z,100545.70
2017-06-08T01:10:40.317Z,100550.14
2017-06-08T01:13:09.385Z,100552.55
2017-06-08T01:15:38.638Z,100549.17
2017-06-08T01:18:07.693Z,100554.27
2017-06-08T01:20:36.781Z,100556.11
2017-06-08T01:23:05.987Z,100555.72
2017-06-08T01:25:35.032Z,100557.59
2017-06-08T01:28:04.186Z,100552.93
2017-06-08T01:30:33.249Z,100548.55
2017-06-08T01:33:02.322Z,100554.98
2017-06-08T01:35:31.360Z,100549.09
2017-06-08T01:38:00.423Z,100554.53
2017-06-08T01:40:29.495Z,100552.11
2017-06-08T01:42:58.548Z,100550.44
2017-06-08T01:45:27.596Z,100552.89
2017-06-08T01:47:56.665Z,100551.49
2017-06-08T01:50:25.733Z,100555.65
2017-06-08T01:52:54.776Z,100557.33
2017-06-08T01:55:23.846Z,100556.91
2017-06-08T01:57:53.670Z,100567.66
2017-06-08T02:00:22.753Z,100568.03
2017-06-08T02:02:52.586Z,100563.19
2017-06-08T02:05:21.662Z,100561.66
2017-06-08T02:07:50.735Z,100560.45
2017-06-08T02:10:19.789Z,100554.22
2017-06-08T02:12:48.848Z,100551.55
2017-06-08T02:15:18.684Z,100552.28
2017-06-08T02:17:47.711Z,100552.00
2017-06-08T02:20:17.285Z,100554.81
2017-06-08T02:22:47.072Z,100560.59
2017-06-08T02:25:16.124Z,100545.95
2017-06-08T02:27:45.228Z,100548.69
2017-06-08T02:30:14.285Z,100549.49
2017-06-08T02:32:43.333Z,100553.02
2017-06-08T02:35:12.433Z,100552.73
2017-06-08T02:37:41.488Z,100554.28
2017-06-08T02:40:10.536Z,100558.48
2017-06-08T02:42:40.373Z,100552.17
2017-06-08T02:45:09.492Z,100557.06
2017-06-08T02:47:38.529Z,100552.63
2017-06-08T02:50:08.376Z,100549.27
2017-06-08T02:52:37.423Z,100553.94
2017-06-08T02:55:06.507Z,100555.53
2017-06-08T02:57:35.549Z,100555.70
2017-06-08T03:00:04.608Z,100556.83
2017-06-08T03:02:33.697Z,100551.50
2017-06-08T03:05:02.889Z,100559.33
2017-06-08T03:07:31.967Z,100562.56
2017-06-08T03:10:01.024Z,100563.05
2017-06-08T03:12:30.853Z,100567.48
2017-06-08T03:14:59.937Z,100564.14
2017-06-08T03:17:28.973Z,100563.58
2017-06-08T03:19:58.064Z,100550.98
2017-06-08T03:22:27.156Z,100554.25
2017-06-08T03:24:56.183Z,100560.86
2017-06-08T03:27:25.273Z,100556.80
2017-06-08T03:29:54.329Z,100563.59
2017-06-08T03:32:23.394Z,100567.71
2017-06-08T03:34:53.220Z,100565.77
2017-06-08T03:37:22.276Z,100573.06
2017-06-08T03:39:51.383Z,100562.12
2017-06-08T03:42:20.417Z,100566.97
2017-06-08T03:44:49.460Z,100566.05
2017-06-08T03:47:18.545Z,100572.61
2017-06-08T03:49:47.604Z,100571.92
2017-06-08T03:52:16.675Z,100574.77
2017-06-08T03:54:45.740Z,100576.02
2017-06-08T03:57:14.782Z,100573.11
2017-06-08T03:59:44.300Z,100576.42
2017-06-08T04:02:13.367Z,100573.77
2017-06-08T04:04:42.420Z,100580.75
2017-06-08T04:07:11.510Z,100582.25
2017-06-08T04:09:40.579Z,100578.84
2017-06-08T04:12:09.652Z,100579.11
2017-06-08T04:14:38.704Z,100579.55
2017-06-08T04:17:07.806Z,100580.75
2017-06-08T04:19:36.861Z,100576.19
2017-06-08T04:22:05.940Z,100583.26
2017-06-08T04:24:35.767Z,100570.67
2017-06-08T04:27:04.825Z,100572.70
2017-06-08T04:29:34.500Z,100573.35
2017-06-08T04:32:03.575Z,100571.51
2017-06-08T04:34:32.631Z,100564.45
2017-06-08T04:37:01.699Z,100564.80
2017-06-08T04:39:30.766Z,100565.95
2017-06-08T04:41:59.849Z,100558.03
2017-06-08T04:44:28.928Z,100563.61
2017-06-08T04:46:57.979Z,100556.14
2017-06-08T04:49:27.073Z,100558.31
2017-06-08T04:51:56.137Z,100558.82
2017-06-08T04:54:25.212Z,100553.39
2017-06-08T04:56:54.265Z,100551.80
2017-06-08T04:59:23.355Z,100551.75
2017-06-08T05:01:52.411Z,100556.25
2017-06-08T05:04:21.460Z,100560.41
2017-06-08T05:06:51.829Z,100562.13
2017-06-08T05:09:20.900Z,100568.17
2017-06-08T05:11:49.948Z,100561.06
2017-06-08T05:14:19.043Z,100573.28
2017-06-08T05:16:48.149Z,100568.05
2017-06-08T05:19:17.243Z,100574.36
2017-06-08T05:21:46.277Z,100574.77
2017-06-08T05:24:15.361Z,100574.03
2017-06-08T05:26:45.187Z,100573.25
2017-06-08T05:29:14.528Z,100578.77
2017-06-08T05:31:43.679Z,100572.86
2017-06-08T05:34:12.709Z,100576.16
2017-06-08T05:36:41.804Z,100578.42
2017-06-08T05:39:10.956Z,100579.96
2017-06-08T05:41:40.791Z,100581.06
2017-06-08T05:44:10.184Z,100579.79
2017-06-08T05:46:39.992Z,100584.20
2017-06-08T05:49:09.881Z,100584.29
2017-06-08T05:51:38.929Z,100578.27
2017-06-08T05:54:08.008Z,100576.55
2017-06-08T05:56:37.835Z,100582.20
2017-06-08T05:59:06.920Z,100573.53
2017-06-08T06:01:35.973Z,100565.23
2017-06-08T06:04:05.268Z,100561.29
2017-06-08T06:06:34.337Z,100557.67
2017-06-08T06:09:03.400Z,100557.90
2017-06-08T06:11:32.469Z,100549.37
2017-06-08T06:14:02.324Z,100544.53
2017-06-08T06:16:31.375Z,100541.89
2017-06-08T06:19:00.436Z,100542.59
2017-06-08T06:21:29.486Z,100544.23
2017-06-08T06:23:58.584Z,100540.12
2017-06-08T06:26:27.636Z,100542.74
2017-06-08T06:28:56.931Z,100541.72
2017-06-08T06:31:26.015Z,100542.39
2017-06-08T06:33:55.076Z,100522.66
2017-06-08T06:36:24.119Z,100533.78
2017-06-08T06:38:53.205Z,100538.54
2017-06-08T06:41:22.282Z,100535.95
2017-06-08T06:43:51.353Z,100541.95
2017-06-08T06:46:20.411Z,100543.71
2017-06-08T06:48:49.468Z,100545.03
2017-06-08T06:51:18.624Z,100541.98
2017-06-08T06:53:47.699Z,100535.36
2017-06-08T06:56:16.740Z,100529.48
2017-06-08T06:58:45.801Z,100533.15
2017-06-08T07:01:15.688Z,100530.80
2017-06-08T07:03:44.767Z,100532.17
2017-06-08T07:06:13.817Z,100528.70
2017-06-08T07:08:42.911Z,100517.97
2017-06-08T07:11:12.007Z,100513.72
2017-06-08T07:13:41.841Z,100508.86
2017-06-08T07:16:10.923Z,100516.67
2017-06-08T07:18:39.993Z,100516.88
2017-06-08T07:21:09.084Z,100512.73
2017-06-08T07:23:38.135Z,100513.84
2017-06-08T07:26:07.196Z,100510.52
2017-06-08T07:28:37.022Z,100514.55
2017-06-08T07:31:06.077Z,100510.64
2017-06-08T07:33:35.156Z,100520.96
2017-06-08T07:36:04.243Z,100509.60
2017-06-08T07:38:33.340Z,100509.87
2017-06-08T07:41:02.388Z,100511.87
2017-06-08T07:43:32.218Z,100507.97
2017-06-08T07:46:01.278Z,100508.52
2017-06-08T07:48:30.331Z,100509.17
2017-06-08T07:50:59.392Z,100509.33
2017-06-08T07:53:28.481Z,100510.86
2017-06-08T07:55:58.297Z,100509.15
2017-06-08T07:58:27.949Z,100511.22
2017-06-08T08:01:25.307Z,100517.14
2017-06-08T08:03:55.013Z,100506.48
2017-06-08T08:06:24.056Z,100502.77
2017-06-08T08:08:53.906Z,100507.89
2017-06-08T08:11:22.985Z,100510.30
2017-06-08T08:13:52.076Z,100507.39
2017-06-08T08:16:21.111Z,100497.13
2017-06-08T08:18:50.173Z,100504.25
2017-06-08T08:21:19.245Z,100504.73
2017-06-08T08:23:49.080Z,100510.27
2017-06-08T08:26:18.131Z,100509.09
2017-06-08T08:28:47.213Z,100510.28
2017-06-08T08:31:16.275Z,100506.34
2017-06-08T08:33:45.561Z,100502.40
2017-06-08T08:36:14.617Z,100506.06
2017-06-08T08:38:43.672Z,100504.57
2017-06-08T08:41:12.773Z,100506.25
2017-06-08T08:43:41.813Z,100504.34
2017-06-08T08:46:10.926Z,100503.55
2017-06-08T08:48:40.731Z,100503.25
2017-06-08T08:51:09.837Z,100502.78
2017-06-08T08:53:38.896Z,100495.72
2017-06-08T08:56:07.964Z,100493.27
2017-06-08T08:58:37.021Z,100500.83
2017-06-08T09:01:06.088Z,100495.83
2017-06-08T09:03:35.137Z,100497.28
2017-06-08T09:06:04.244Z,100494.48
2017-06-08T09:08:33.309Z,100503.05
2017-06-08T09:11:02.366Z,100504.77
2017-06-08T09:13:31.426Z,100496.14
2017-06-08T09:16:01.336Z,100490.56
2017-06-08T09:18:30.400Z,100490.83
2017-06-08T09:20:59.479Z,100486.97
2017-06-08T09:23:28.526Z,100488.44
2017-06-08T09:25:57.576Z,100484.08
2017-06-08T09:28:28.223Z,100479.77
2017-06-08T09:30:58.066Z,100483.64
2017-06-08T09:33:27.080Z,100479.84
2017-06-08T09:35:56.172Z,100474.45
2017-06-08T09:38:25.733Z,100473.01
2017-06-08T09:40:55.081Z,100478.73
2017-06-08T09:43:24.688Z,100476.22
2017-06-08T09:45:53.735Z,100473.06
2017-06-08T09:48:22.809Z,100460.43
2017-06-08T09:50:51.860Z,100468.43
2017-06-08T09:53:20.941Z,100463.54
2017-06-08T09:55:50.029Z,100465.35
2017-06-08T09:58:19.105Z,100454.95
2017-06-08T10:00:48.900Z,100456.79
2017-06-08T10:03:18.809Z,100469.45
2017-06-08T10:05:47.880Z,100464.74
2017-06-08T10:08:17.021Z,100467.50
2017-06-08T10:10:46.853Z,100464.57
2017-06-08T10:13:15.951Z,100471.27
2017-06-08T10:15:45.048Z,100467.70
2017-06-08T10:18:14.329Z,100463.61
2017-06-08T10:20:43.424Z,100475.13
2017-06-08T10:23:12.464Z,100467.85
2017-06-08T10:25:41.546Z,100471.19
2017-06-08T10:28:10.600Z,100466.83
2017-06-08T10:30:40.417Z,100472.94
2017-06-08T10:33:09.500Z,100471.58
2017-06-08T10:35:38.576Z,100464.69
2017-06-08T10:38:07.658Z,100457.20
2017-06-08T10:40:36.736Z,100463.55
2017-06-08T10:43:05.864Z,100459.78
2017-06-08T10:45:34.967Z,100453.23
2017-06-08T10:48:04.049Z,100465.16
2017-06-08T10:50:33.114Z,100447.91
2017-06-08T10:53:02.194Z,100447.13
2017-06-08T10:55:31.239Z,100438.62
2017-06-08T10:58:00.328Z,100435.04
2017-06-08T11:00:29.389Z,100437.02
2017-06-08T11:02:58.632Z,100438.78
2017-06-08T11:05:27.689Z,100433.64
2017-06-08T11:07:56.756Z,100436.02
2017-06-08T11:10:25.826Z,100430.25
2017-06-08T11:12:54.864Z,100434.98
2017-06-08T11:15:24.241Z,100422.65
2017-06-08T11:17:54.084Z,100424.84
2017-06-08T11:20:23.409Z,100434.91
2017-06-08T11:22:52.453Z,100424.41
2017-06-08T11:25:21.535Z,100421.23
2017-06-08T11:27:51.028Z,100413.53
2017-06-08T11:30:20.080Z,100418.91
2017-06-08T11:32:49.136Z,100418.70
2017-06-08T11:35:18.955Z,100410.55
2017-06-08T11:37:48.035Z,100407.56
2017-06-08T11:40:17.113Z,100404.58
2017-06-08T11:42:46.173Z,100415.00
2017-06-08T11:45:15.261Z,100409.25
2017-06-08T11:47:45.108Z,100401.94
2017-06-08T11:50:15.228Z,100402.70
2017-06-08T11:52:44.533Z,100401.91
2017-06-08T11:55:13.624Z,100399.66
2017-06-08T11:57:42.708Z,100393.81
2017-06-08T12:00:11.771Z,100389.86
2017-06-08T12:02:40.819Z,100389.84
2017-06-08T12:05:09.878Z,100380.94
2017-06-08T12:07:38.944Z,100389.48
2017-06-08T12:10:08.004Z,100383.75
2017-06-08T12:12:37.056Z,100384.97
2017-06-08T12:15:06.879Z,100379.01
2017-06-08T12:17:35.935Z,100366.33
2017-06-08T12:20:05.777Z,100367.66
2017-06-08T12:22:39.680Z,100366.83
2017-06-08T12:25:08.755Z,100371.58
2017-06-08T12:27:37.835Z,100369.01
2017-06-08T12:30:06.915Z,100363.23
2017-06-08T12:32:35.984Z,100368.54
2017-06-08T12:35:05.061Z,100365.91
2017-06-08T12:37:34.126Z,100370.06
2017-06-08T12:40:03.217Z,100372.44
2017-06-08T12:42:33.029Z,100373.91
2017-06-08T12:45:02.896Z,100368.98
2017-06-08T12:47:32.792Z,100365.63
2017-06-08T12:50:01.882Z,100358.90
2017-06-08T12:52:30.941Z,100357.53
2017-06-08T12:55:00.855Z,100358.03
2017-06-08T12:57:30.677Z,100369.66
2017-06-08T12:59:59.738Z,100360.05
2017-06-08T13:02:28.829Z,100360.05
2017-06-08T13:04:57.874Z,100351.78
2017-06-08T13:07:27.169Z,100355.11
2017-06-08T13:09:56.236Z,100355.22
2017-06-08T13:12:25.285Z,100353.80
2017-06-08T13:14:54.353Z,100355.51
2017-06-08T13:17:24.257Z,100357.43
2017-06-08T13:19:54.074Z,100356.99
2017-06-08T13:22:23.948Z,100354.31
2017-06-08T13:24:53.005Z,100354.38
2017-06-08T13:27:22.065Z,100354.35
2017-06-08T13:29:51.146Z,100354.11
2017-06-08T13:32:21.057Z,100341.09
2017-06-08T13:34:51.203Z,100343.60
2017-06-08T13:37:20.268Z,100334.80
2017-06-08T13:39:49.320Z,100342.16
2017-06-08T13:42:18.428Z,100329.52
2017-06-08T13:44:47.488Z,100337.32
2017-06-08T13:47:16.646Z,100330.98
2017-06-08T13:49:45.717Z,100327.34
2017-06-08T13:52:14.789Z,100326.14
2017-06-08T13:54:44.604Z,100327.27
2017-06-08T13:57:13.793Z,100326.95
2017-06-08T13:59:42.815Z,100327.33
2017-06-08T14:02:11.897Z,100336.27
2017-06-08T14:04:40.975Z,100332.96
2017-06-08T14:07:10.781Z,100325.02
2017-06-08T14:09:40.672Z,100330.97
2017-06-08T14:12:09.718Z,100329.60
2017-06-08T14:14:38.860Z,100323.02
2017-06-08T14:17:07.963Z,100320.30
2017-06-08T14:19:37.001Z,100317.78
2017-06-08T14:22:06.207Z,100315.63
2017-06-08T14:24:35.263Z,100307.84
2017-06-08T14:27:05.106Z,100308.34
2017-06-08T14:29:36.432Z,100293.82
2017-06-08T14:32:06.776Z,100298.92
2017-06-08T14:34:35.872Z,100288.94
2017-06-08T14:37:04.933Z,100287.42
2017-06-08T14:39:33.996Z,100294.89
2017-06-08T14:42:03.053Z,100291.02
2017-06-08T14:44:32.104Z,100294.37
2017-06-08T14:47:01.197Z,100292.43
2017-06-08T14:49:30.244Z,100281.53
2017-06-08T14:51:59.304Z,100270.78
2017-06-08T14:54:28.389Z,100271.88
2017-06-08T14:56:57.433Z,100263.07
2017-06-08T14:59:26.484Z,100269.33
2017-06-08T15:01:55.591Z,100269.36
2017-06-08T15:04:24.657Z,100272.31
2017-06-08T15:06:53.720Z,100262.72
2017-06-08T15:09:22.793Z,100263.53
2017-06-08T15:11:51.858Z,100261.53
2017-06-08T15:14:20.904Z,100257.31
2017-06-08T15:16:49.960Z,100250.12
2017-06-08T15:19:19.797Z,100256.49
2017-06-08T15:21:48.853Z,100246.19
2017-06-08T15:24:18.400Z,100244.37
2017-06-08T15:26:48.209Z,100240.87
2017-06-08T15:29:17.256Z,100240.06
2017-06-08T15:31:46.315Z,100238.22
2017-06-08T15:34:15.384Z,100236.43
2017-06-08T15:36:44.460Z,100228.84
2017-06-08T15:39:13.502Z,100223.27
2017-06-08T15:41:42.578Z,100217.22
2017-06-08T15:44:12.404Z,100218.16
2017-06-08T15:46:41.468Z,100209.34
2017-06-08T15:49:10.613Z,100208.16
2017-06-08T15:51:39.687Z,100196.41
2017-06-08T15:54:08.796Z,100190.36
2017-06-08T15:56:37.970Z,100185.22
2017-06-08T15:59:07.004Z,100195.41
2017-06-08T16:01:36.113Z,100183.05
2017-06-08T16:04:05.159Z,100178.62
2017-06-08T16:06:34.226Z,100176.23
2017-06-08T16:09:03.323Z,100171.42
2017-06-08T16:11:33.141Z,100170.61
2017-06-08T16:14:02.240Z,100176.16
2017-06-08T16:16:32.054Z,100162.77
2017-06-08T16:19:01.939Z,100164.85
2017-06-08T16:21:31.008Z,100150.88
2017-06-08T16:24:00.063Z,100157.12
2017-06-08T16:26:29.153Z,100156.19
2017-06-08T16:28:58.979Z,100162.56
2017-06-08T16:31:28.053Z,100156.16
2017-06-08T16:33:57.096Z,100156.81
2017-06-08T16:36:26.244Z,100160.98
2017-06-08T16:38:55.310Z,100161.38
2017-06-08T16:41:24.342Z,100160.62
2017-06-08T16:43:53.426Z,100163.42
2017-06-08T16:46:22.492Z,100158.73
2017-06-08T16:48:51.583Z,100157.55
2017-06-08T16:51:20.646Z,100162.45
2017-06-08T16:53:49.720Z,100151.95
2017-06-08T16:56:19.734Z,100161.19
2017-06-08T16:58:48.760Z,100160.53
2017-06-08T17:01:18.071Z,100151.91
2017-06-08T17:03:47.144Z,100146.29
2017-06-08T17:06:16.236Z,100138.05
2017-06-08T17:08:45.302Z,100141.00
2017-06-08T17:11:14.405Z,100150.84
2017-06-08T17:13:43.468Z,100147.40
2017-06-08T17:16:12.578Z,100151.64
2017-06-08T17:18:41.602Z,100155.42
2017-06-08T17:21:10.692Z,100143.42
2017-06-08T17:23:39.773Z,100142.39
2017-06-08T17:26:08.833Z,100142.42
2017-06-08T17:28:38.136Z,100143.42
2017-06-08T17:31:07.200Z,100136.90
2017-06-08T17:33:36.263Z,100137.15
2017-06-08T17:36:05.445Z,100129.84
2017-06-08T17:38:36.024Z,100134.86
2017-06-08T17:41:05.125Z,100141.45
2017-06-08T17:43:34.187Z,100137.10
2017-06-08T17:46:03.349Z,100132.11
2017-06-08T17:48:32.445Z,100123.62
2017-06-08T17:51:01.544Z,100133.78
2017-06-08T17:53:30.656Z,100129.86
2017-06-08T17:55:59.758Z,100129.11
2017-06-08T17:58:28.835Z,100129.14
2017-06-08T18:00:57.896Z,100128.72
2017-06-08T18:03:26.943Z,100133.66
2017-06-08T18:05:56.022Z,100128.17
2017-06-08T18:08:25.185Z,100122.44
2017-06-08T18:10:54.283Z,100128.69
2017-06-08T18:13:23.340Z,100125.91
2017-06-08T18:15:52.419Z,100125.91
2017-06-08T18:18:21.520Z,100124.19
2017-06-08T18:20:50.560Z,100122.80
2017-06-08T18:23:19.612Z,100132.31
2017-06-08T18:25:48.702Z,100127.18
2017-06-08T18:28:17.753Z,100125.25
2017-06-08T18:30:46.804Z,100130.34
2017-06-08T18:33:15.889Z,100132.25
2017-06-08T18:35:44.960Z,100134.99
2017-06-08T18:38:14.007Z,100133.81
2017-06-08T18:40:43.102Z,100132.27
2017-06-08T18:43:12.186Z,100137.88
2017-06-08T18:45:41.227Z,100140.50
2017-06-08T18:48:10.329Z,100139.33
2017-06-08T18:50:39.447Z,100141.61
2017-06-08T18:53:08.493Z,100153.18
2017-06-08T18:55:37.580Z,100143.15
2017-06-08T18:58:06.672Z,100152.30
2017-06-08T19:00:35.731Z,100160.10
2017-06-08T19:03:04.833Z,100161.74
2017-06-08T19:05:33.896Z,100170.52
2017-06-08T19:08:02.978Z,100165.64
2017-06-08T19:10:32.069Z,100167.05
2017-06-08T19:13:01.164Z,100171.21
2017-06-08T19:15:30.983Z,100172.08
2017-06-08T19:18:00.011Z,100166.41
2017-06-08T19:20:29.072Z,100176.34
2017-06-08T19:22:58.140Z,100177.77
2017-06-08T19:25:27.219Z,100174.23
2017-06-08T19:27:56.330Z,100179.25
2017-06-08T19:30:25.420Z,100183.05
2017-06-08T19:32:54.477Z,100182.28
2017-06-08T19:35:23.560Z,100184.11
2017-06-08T19:37:52.732Z,100182.18
2017-06-08T19:40:21.761Z,100189.89
2017-06-08T19:42:51.036Z,100189.71
2017-06-08T19:45:20.125Z,100190.17
2017-06-08T19:47:50.468Z,100190.95
2017-06-08T19:50:19.592Z,100189.98
2017-06-08T19:52:48.825Z,100188.81
2017-06-08T19:55:18.183Z,100190.21
2017-06-08T19:57:47.276Z,100189.07
2017-06-08T20:00:18.160Z,100195.42
2017-06-08T20:02:47.593Z,100195.81
2017-06-08T20:05:16.865Z,100195.25
2017-06-08T20:07:45.940Z,100187.95
2017-06-08T20:10:15.819Z,100191.91
2017-06-08T20:12:44.865Z,100194.29
2017-06-08T20:15:13.926Z,100188.16
2017-06-08T20:17:43.022Z,100190.73
2017-06-08T20:20:12.102Z,100193.08
2017-06-08T20:22:41.171Z,100190.11
2017-06-08T20:25:10.237Z,100194.27
2017-06-08T20:27:39.309Z,100193.88
2017-06-08T20:30:08.516Z,100194.08
2017-06-08T20:32:37.614Z,100189.94
2017-06-08T20:35:06.790Z,100191.12
2017-06-08T20:37:35.898Z,100196.66
2017-06-08T20:40:04.985Z,100186.17
2017-06-08T20:42:34.048Z,100194.30
2017-06-08T20:45:03.160Z,100195.67
2017-06-08T20:47:32.204Z,100192.11
2017-06-08T20:50:01.268Z,100192.70
2017-06-08T20:52:30.608Z,100192.13
2017-06-08T20:54:59.668Z,100188.38
2017-06-08T20:57:29.526Z,100187.95
2017-06-08T20:59:58.583Z,100197.08
2017-06-08T21:02:27.621Z,100189.77
2017-06-08T21:04:56.699Z,100187.20
2017-06-08T21:07:26.591Z,100187.58
2017-06-08T21:09:56.429Z,100187.98
2017-06-08T21:12:25.476Z,100187.39
2017-06-08T21:14:55.316Z,100191.53
2017-06-08T21:17:24.425Z,100186.98
2017-06-08T21:19:53.507Z,100186.39
2017-06-08T21:22:23.323Z,100192.30
2017-06-08T21:24:52.414Z,100189.34
2017-06-08T21:27:22.224Z,100189.95
2017-06-08T21:29:52.073Z,100196.04
2017-06-08T21:32:21.152Z,100192.50
2017-06-08T21:34:51.038Z,100193.67
2017-06-08T21:37:20.605Z,100187.36
2017-06-08T21:39:49.648Z,100176.86
2017-06-08T21:42:18.741Z,100186.33
2017-06-08T21:44:47.804Z,100175.87
2017-06-08T21:47:16.910Z,100177.62
2017-06-08T21:49:45.984Z,100174.27
2017-06-08T21:52:15.041Z,100174.08
2017-06-08T21:54:44.108Z,100184.14
2017-06-08T21:57:13.202Z,100179.39
2017-06-08T21:59:42.297Z,100176.83
2017-06-08T22:02:11.531Z,100177.41
2017-06-08T22:04:40.658Z,100177.58
2017-06-08T22:07:09.738Z,100181.52
2017-06-08T22:09:38.797Z,100169.86
2017-06-08T22:12:07.914Z,100163.92
2017-06-08T22:14:36.971Z,100170.44
2017-06-08T22:17:06.033Z,100164.89
2017-06-08T22:19:35.120Z,100168.80
2017-06-08T22:22:04.251Z,100166.64
2017-06-08T22:24:33.300Z,100159.15
2017-06-08T22:27:02.332Z,100162.11
2017-06-08T22:29:31.636Z,100160.89
2017-06-08T22:32:00.732Z,100154.00
2017-06-08T22:34:29.795Z,100155.15
2017-06-08T22:36:58.843Z,100149.83
2017-06-08T22:39:27.939Z,100149.04
2017-06-08T22:41:57.120Z,100142.84
2017-06-08T22:44:26.264Z,100140.44
2017-06-08T22:46:55.315Z,100136.47
2017-06-08T22:49:24.381Z,100130.36
2017-06-08T22:51:53.453Z,100132.72
2017-06-08T22:54:22.503Z,100131.27
2017-06-08T22:56:51.585Z,100130.45
2017-06-08T22:59:20.650Z,100127.09
2017-06-08T23:01:49.701Z,100120.01
2017-06-08T23:04:18.775Z,100118.23
2017-06-08T23:06:47.916Z,100110.78
2017-06-08T23:09:16.980Z,100114.53
2017-06-08T23:11:46.045Z,100107.05
2017-06-08T23:14:15.104Z,100106.69
2017-06-08T23:16:44.195Z,100102.78
2017-06-08T23:19:13.256Z,100102.35
2017-06-08T23:21:42.361Z,100101.40
2017-06-08T23:24:11.397Z,100101.20
2017-06-08T23:26:40.446Z,100094.86
2017-06-08T23:29:09.545Z,100096.44
2017-06-08T23:31:38.585Z,100083.63
2017-06-08T23:34:07.684Z,100082.06
2017-06-08T23:36:36.748Z,100069.42
2017-06-08T23:39:05.823Z,100060.33
2017-06-08T23:41:34.896Z,100055.60
2017-06-08T23:44:03.991Z,100057.37
2017-06-08T23:46:33.044Z,100045.72
2017-06-08T23:49:02.101Z,100042.53
2017-06-08T23:51:31.166Z,100038.95
2017-06-08T23:54:00.224Z,100034.16
2017-06-08T23:56:29.420Z,100035.30
2017-06-08T23:58:58.526Z,100032.86
